Time;durP1;ratioP1;P1;durP2;ratioP2;P2;SDS_P1;SDS_P2;PMS_P1;PMS_P2;Temp;Humidity;BMP_temperature;BMP_pressure;BME280_temperature;BME280_humidity;BME280_pressure;Samples;Min_cycle;Max_cycle;Signal;HPM_P1;HPM_P2
2022/03/18 00:00:28;;;;;;;;;;;;;;;;;;5032310;28;19909;-51
2022/03/18 00:02:54;;;;;;;;;;;;;;;;;;5031981;28;19921;-51
2022/03/18 00:05:20;;;;;;;;;;;;;;;;;;5032181;28;19959;-51
2022/03/18 00:07:46;;;;;;;;;;;;;;;;;;5032246;28;19951;-52
2022/03/18 00:10:12;;;;;;;;;;;;;;;;;;5032472;28;19936;-51
2022/03/18 00:12:38;;;;;;;;;;;;;;;;;;5032145;28;19932;-51
2022/03/18 00:15:03;;;;;;;;;;;;;;;;;;5032084;28;19959;-52
2022/03/18 00:17:29;;;;;;;;;;;;;;;;;;5033307;28;19919;-50
2022/03/18 00:19:55;;;;;;;;;;;;;;;;;;5035668;28;20368;-51
2022/03/18 00:22:21;;;;;;;;;;;;;;;;;;5035656;28;19996;-51
2022/03/18 00:24:47;;;;;;;;;;;;;;;;;;5035675;28;19912;-51
2022/03/18 00:27:13;;;;;;;;;;;;;;;;;;5035629;28;19996;-51
2022/03/18 00:29:39;;;;;;;;;;;;;;;;;;5035530;28;19927;-50
2022/03/18 00:32:04;;;;;;;;;;;;;;;;;;5035746;28;19912;-52
2022/03/18 00:34:30;;;;;;;;;;;;;;;;;;5035478;28;19924;-51
2022/03/18 00:36:56;;;;;;;;;;;;;;;;;;5035393;28;19905;-52
2022/03/18 00:39:22;;;;;;;;;;;;;;;;;;5035334;28;19917;-53
2022/03/18 00:41:48;;;;;;;;;;;;;;;;;;5035355;28;19905;-52
2022/03/18 00:44:14;;;;;;;;;;;;;;;;;;5035554;28;20000;-52
2022/03/18 00:46:40;;;;;;;;;;;;;;;;;;5035386;28;20279;-52
2022/03/18 00:52:06;;;;;;;;;;;;;;;;;;5035193;28;20003;-52
2022/03/18 00:54:32;;;;;;;;;;;;;;;;;;5035105;28;19916;-54
2022/03/18 00:56:58;;;;;;;;;;;;;;;;;;5035028;28;19909;-50
2022/03/18 00:59:24;;;;;;;;;;;;;;;;;;5035168;28;19959;-52
2022/03/18 01:01:53;;;;;;;;;;;;;;;;;;5034758;28;19959;-52
2022/03/18 01:04:19;;;;;;;;;;;;;;;;;;5035029;28;19912;-51
2022/03/18 01:06:45;;;;;;;;;;;;;;;;;;5034904;28;19951;-51
2022/03/18 01:09:11;;;;;;;;;;;;;;;;;;5035123;28;20011;-54
2022/03/18 01:11:37;;;;;;;;;;;;;;;;;;5034731;28;19955;-52
2022/03/18 01:14:03;;;;;;;;;;;;;;;;;;5034728;28;19909;-51
2022/03/18 01:16:29;;;;;;;;;;;;;;;;;;5034753;28;19948;-51
2022/03/18 01:18:54;;;;;;;;;;;;;;;;;;5034543;28;19948;-51
2022/03/18 01:21:20;;;;;;;;;;;;;;;;;;5034698;28;20338;-50
2022/03/18 01:23:46;;;;;;;;;;;;;;;;;;5034888;28;19912;-50
2022/03/18 01:26:12;;;;;;;;;;;;;;;;;;5034455;28;19909;-51
2022/03/18 01:28:38;;;;;;;;;;;;;;;;;;5033656;28;19983;-51
2022/03/18 01:31:04;;;;;;;;;;;;;;;;;;5034408;28;19912;-50
2022/03/18 01:33:30;;;;;;;;;;;;;;;;;;5034350;28;19912;-51
2022/03/18 01:35:55;;;;;;;;;;;;;;;;;;5034309;28;19912;-51
2022/03/18 01:38:21;;;;;;;;;;;;;;;;;;5034177;28;19999;-51
2022/03/18 01:40:47;;;;;;;;;;;;;;;;;;5034337;28;19951;-52
2022/03/18 01:43:13;;;;;;;;;;;;;;;;;;5034117;28;19912;-51
2022/03/18 01:45:39;;;;;;;;;;;;;;;;;;5034378;28;19989;-51
2022/03/18 01:48:05;;;;;;;;;;;;;;;;;;5034009;28;19905;-50
2022/03/18 01:50:31;;;;;;;;;;;;;;;;;;5034023;28;19904;-51
2022/03/18 01:52:57;;;;;;;;;;;;;;;;;;5033986;28;19905;-51
2022/03/18 01:55:23;;;;;;;;;;;;;;;;;;5033904;28;19905;-53
2022/03/18 01:57:49;;;;;;;;;;;;;;;;;;5033818;28;20063;-52
2022/03/18 02:00:15;;;;;;;;;;;;;;;;;;5033875;28;20272;-53
2022/03/18 02:02:40;;;;;;;;;;;;;;;;;;5033737;28;19987;-51
2022/03/18 02:05:06;;;;;;;;;;;;;;;;;;5033771;28;19909;-52
2022/03/18 02:07:32;;;;;;;;;;;;;;;;;;5033717;28;19908;-51
2022/03/18 02:09:58;;;;;;;;;;;;;;;;;;5033667;28;19905;-51
2022/03/18 02:12:24;;;;;;;;;;;;;;;;;;5033674;28;19905;-51
2022/03/18 02:14:50;;;;;;;;;;;;;;;;;;5033557;28;20344;-51
2022/03/18 02:17:16;;;;;;;;;;;;;;;;;;5033456;28;19905;-52
2022/03/18 02:19:42;;;;;;;;;;;;;;;;;;5033507;28;19909;-53
2022/03/18 02:22:08;;;;;;;;;;;;;;;;;;5033472;28;19948;-51
2022/03/18 02:24:33;;;;;;;;;;;;;;;;;;5033369;28;20000;-51
2022/03/18 02:26:59;;;;;;;;;;;;;;;;;;5033612;28;19905;-50
2022/03/18 02:29:25;;;;;;;;;;;;;;;;;;5033272;28;19988;-50
2022/03/18 02:31:51;;;;;;;;;;;;;;;;;;5033330;28;19905;-50
2022/03/18 02:34:17;;;;;;;;;;;;;;;;;;5033514;28;20323;-50
2022/03/18 02:36:43;;;;;;;;;;;;;;;;;;5033240;28;19959;-51
2022/03/18 02:39:09;;;;;;;;;;;;;;;;;;5033148;28;19917;-50
2022/03/18 02:41:35;;;;;;;;;;;;;;;;;;5032975;28;19912;-51
2022/03/18 02:44:01;;;;;;;;;;;;;;;;;;5033146;28;20248;-51
2022/03/18 02:46:27;;;;;;;;;;;;;;;;;;5033086;28;19905;-51
2022/03/18 02:48:53;;;;;;;;;;;;;;;;;;5033006;28;19908;-51
2022/03/18 02:51:19;;;;;;;;;;;;;;;;;;5033239;28;19905;-51
2022/03/18 02:53:45;;;;;;;;;;;;;;;;;;5032971;28;20374;-50
2022/03/18 02:56:12;;;;;;;;;;;;;;;;;;5032904;28;19905;-50
2022/03/18 02:58:38;;;;;;;;;;;;;;;;;;5032768;28;20015;-52
2022/03/18 03:01:04;;;;;;;;;;;;;;;;;;5032865;28;19943;-50
2022/03/18 03:03:30;;;;;;;;;;;;;;;;;;5032544;28;19921;-51
2022/03/18 03:08:40;;;;;;;;;;;;;;;;;;5032763;28;19986;-50
2022/03/18 03:11:06;;;;;;;;;;;;;;;;;;5032779;28;19953;-51
2022/03/18 03:13:37;;;;;;;;;;;;;;;;;;5033053;28;19909;-60
2022/03/18 03:16:03;;;;;;;;;;;;;;;;;;5032734;28;19909;-59
2022/03/18 03:18:28;;;;;;;;;;;;;;;;;;5032548;28;19936;-59
2022/03/18 03:20:54;;;;;;;;;;;;;;;;;;5032701;28;19904;-59
2022/03/18 03:23:23;;;;;;;;;;;;;;;;;;5032612;28;19909;-61
2022/03/18 03:25:50;;;;;;;;;;;;;;;;;;5032893;28;19905;-60
2022/03/18 03:28:17;;;;;;;;;;;;;;;;;;5032559;28;19952;-61
2022/03/18 03:30:42;;;;;;;;;;;;;;;;;;5032843;28;19913;-61
2022/03/18 03:33:08;;;;;;;;;;;;;;;;;;5032820;28;19910;-60
2022/03/18 03:35:34;;;;;;;;;;;;;;;;;;5032510;28;19905;-60
2022/03/18 03:38:00;;;;;;;;;;;;;;;;;;5032356;28;20022;-60
2022/03/18 03:40:26;;;;;;;;;;;;;;;;;;5032397;28;19934;-60
2022/03/18 03:42:53;;;;;;;;;;;;;;;;;;5032378;28;19971;-60
2022/03/18 03:45:19;;;;;;;;;;;;;;;;;;5032430;28;19905;-60
2022/03/18 03:47:44;;;;;;;;;;;;;;;;;;5032410;28;19912;-60
2022/03/18 03:50:10;;;;;;;;;;;;;;;;;;5032704;28;20383;-60
2022/03/18 03:52:36;;;;;;;;;;;;;;;;;;5033930;28;19905;-60
2022/03/18 03:55:02;;;;;;;;;;;;;;;;;;5036512;28;19913;-60
2022/03/18 03:57:28;;;;;;;;;;;;;;;;;;5036072;28;19940;-60
2022/03/18 03:59:54;;;;;;;;;;;;;;;;;;5036359;28;19905;-60
2022/03/18 04:02:20;;;;;;;;;;;;;;;;;;5035813;28;19924;-60
2022/03/18 04:04:46;;;;;;;;;;;;;;;;;;5036007;28;19959;-59
2022/03/18 04:07:11;;;;;;;;;;;;;;;;;;5036137;28;19905;-59
2022/03/18 04:09:37;;;;;;;;;;;;;;;;;;5036038;28;19905;-60
2022/03/18 04:12:03;;;;;;;;;;;;;;;;;;5035900;28;19912;-60
2022/03/18 04:14:29;;;;;;;;;;;;;;;;;;5035872;28;20290;-60
2022/03/18 04:16:55;;;;;;;;;;;;;;;;;;5035810;28;19905;-60
2022/03/18 04:19:21;;;;;;;;;;;;;;;;;;5035666;28;19920;-60
2022/03/18 04:21:47;;;;;;;;;;;;;;;;;;5035695;28;19987;-60
2022/03/18 04:24:12;;;;;;;;;;;;;;;;;;5036003;28;19909;-60
2022/03/18 04:26:38;;;;;;;;;;;;;;;;;;5035659;28;20418;-60
2022/03/18 04:29:04;;;;;;;;;;;;;;;;;;5035593;28;19905;-60
2022/03/18 04:31:30;;;;;;;;;;;;;;;;;;5035597;28;20380;-60
2022/03/18 04:33:56;;;;;;;;;;;;;;;;;;5035461;28;20318;-60
2022/03/18 04:36:22;;;;;;;;;;;;;;;;;;5035483;28;20004;-60
2022/03/18 04:38:48;;;;;;;;;;;;;;;;;;5035312;28;20283;-60
2022/03/18 04:41:14;;;;;;;;;;;;;;;;;;5035402;28;19905;-60
2022/03/18 04:43:40;;;;;;;;;;;;;;;;;;5035313;28;20329;-60
2022/03/18 04:46:06;;;;;;;;;;;;;;;;;;5035356;28;19905;-60
2022/03/18 04:48:31;;;;;;;;;;;;;;;;;;5035251;28;19905;-60
2022/03/18 04:50:57;;;;;;;;;;;;;;;;;;5035214;28;19916;-59
2022/03/18 04:53:23;;;;;;;;;;;;;;;;;;5035148;28;19950;-60
2022/03/18 04:55:49;;;;;;;;;;;;;;;;;;5035050;28;19912;-60
2022/03/18 04:58:15;;;;;;;;;;;;;;;;;;5034952;28;19996;-60
2022/03/18 05:00:41;;;;;;;;;;;;;;;;;;5034999;28;19928;-59
2022/03/18 05:03:07;;;;;;;;;;;;;;;;;;5034310;28;19964;-59
2022/03/18 05:05:32;;;;;;;;;;;;;;;;;;5034278;28;19916;-60
2022/03/18 05:07:58;;;;;;;;;;;;;;;;;;5035124;28;19905;-60
2022/03/18 05:10:24;;;;;;;;;;;;;;;;;;5034851;28;20566;-60
2022/03/18 05:12:52;;;;;;;;;;;;;;;;;;5034755;28;19912;-60
2022/03/18 05:15:18;;;;;;;;;;;;;;;;;;5034699;28;19952;-60
2022/03/18 05:17:44;;;;;;;;;;;;;;;;;;5034644;28;19963;-59
2022/03/18 05:20:10;;;;;;;;;;;;;;;;;;5034659;28;19912;-59
2022/03/18 05:22:36;;;;;;;;;;;;;;;;;;5034642;28;19982;-59
2022/03/18 05:25:01;;;;;;;;;;;;;;;;;;5034565;28;19905;-60
2022/03/18 05:27:27;;;;;;;;;;;;;;;;;;5034486;28;19911;-60
2022/03/18 05:29:53;;;;;;;;;;;;;;;;;;5034469;28;19905;-60
2022/03/18 05:32:19;;;;;;;;;;;;;;;;;;5034674;28;20411;-59
2022/03/18 05:34:45;;;;;;;;;;;;;;;;;;5034390;28;19944;-60
2022/03/18 05:37:11;;;;;;;;;;;;;;;;;;5034314;28;19905;-60
2022/03/18 05:39:37;;;;;;;;;;;;;;;;;;5034226;28;19920;-59
2022/03/18 05:42:03;;;;;;;;;;;;;;;;;;5034201;28;19909;-60
2022/03/18 05:44:28;;;;;;;;;;;;;;;;;;5034161;28;20383;-60
2022/03/18 05:46:55;;;;;;;;;;;;;;;;;;5034085;28;19990;-60
2022/03/18 05:49:21;;;;;;;;;;;;;;;;;;5034392;28;19905;-59
2022/03/18 05:51:47;;;;;;;;;;;;;;;;;;5034012;28;20279;-60
2022/03/18 05:54:13;;;;;;;;;;;;;;;;;;5034020;28;20030;-60
2022/03/18 05:56:55;;;;;;;;;;;;;;;;;;5033985;28;20389;-60
2022/03/18 05:59:21;;;;;;;;;;;;;;;;;;5034158;28;20287;-60
2022/03/18 06:01:47;;;;;;;;;;;;;;;;;;5033583;28;19915;-60
2022/03/18 06:04:14;;;;;;;;;;;;;;;;;;5034112;28;19986;-59
2022/03/18 06:06:40;;;;;;;;;;;;;;;;;;5033917;28;20310;-60
2022/03/18 06:11:51;;;;;;;;;;;;;;;;;;5033816;28;19994;-60
2022/03/18 06:14:18;;;;;;;;;;;;;;;;;;5033700;28;19905;-59
2022/03/18 06:16:43;;;;;;;;;;;;;;;;;;5033357;28;19988;-60
2022/03/18 06:19:11;;;;;;;;;;;;;;;;;;5033431;28;20020;-59
2022/03/18 06:21:37;;;;;;;;;;;;;;;;;;5033545;28;20334;-60
2022/03/18 06:24:03;;;;;;;;;;;;;;;;;;5033409;28;19913;-59
2022/03/18 06:26:30;;;;;;;;;;;;;;;;;;5033378;28;19959;-59
2022/03/18 06:28:56;;;;;;;;;;;;;;;;;;5033413;28;19912;-59
2022/03/18 06:31:22;;;;;;;;;;;;;;;;;;5033235;28;19909;-59
2022/03/18 06:33:48;;;;;;;;;;;;;;;;;;5033324;28;19952;-59
2022/03/18 06:36:14;;;;;;;;;;;;;;;;;;5033297;28;19905;-59
2022/03/18 06:38:40;;;;;;;;;;;;;;;;;;5033100;28;20009;-60
2022/03/18 06:41:06;;;;;;;;;;;;;;;;;;5033102;28;19905;-60
2022/03/18 06:43:32;;;;;;;;;;;;;;;;;;5033089;28;19963;-59
2022/03/18 06:45:58;;;;;;;;;;;;;;;;;;5033054;28;20322;-60
2022/03/18 06:48:25;;;;;;;;;;;;;;;;;;5032945;28;19992;-60
2022/03/18 06:50:51;;;;;;;;;;;;;;;;;;5033320;28;19905;-61
2022/03/18 06:53:16;;;;;;;;;;;;;;;;;;5033038;28;20323;-62
2022/03/18 06:55:42;;;;;;;;;;;;;;;;;;5032919;28;19940;-60
2022/03/18 06:58:08;;;;;;;;;;;;;;;;;;5032832;28;20437;-60
2022/03/18 07:00:35;;;;;;;;;;;;;;;;;;5033058;28;19905;-60
2022/03/18 07:03:01;;;;;;;;;;;;;;;;;;5032544;28;19917;-60
2022/03/18 07:05:27;;;;;;;;;;;;;;;;;;5032628;28;19905;-60
2022/03/18 07:07:53;;;;;;;;;;;;;;;;;;5032779;28;20326;-60
2022/03/18 07:10:19;;;;;;;;;;;;;;;;;;5032690;28;20390;-60
2022/03/18 07:12:45;;;;;;;;;;;;;;;;;;5032746;28;19948;-60
2022/03/18 07:15:10;;;;;;;;;;;;;;;;;;5032658;28;19905;-60
2022/03/18 07:17:55;;;;;;;;;;;;;;;;;;5032573;28;20507;-60
2022/03/18 07:20:22;;;;;;;;;;;;;;;;;;5032577;28;19909;-60
2022/03/18 07:22:48;;;;;;;;;;;;;;;;;;5032827;28;19975;-60
2022/03/18 07:25:14;;;;;;;;;;;;;;;;;;5032449;28;19905;-60
2022/03/18 07:27:40;;;;;;;;;;;;;;;;;;5034302;28;19905;-60
2022/03/18 07:30:06;;;;;;;;;;;;;;;;;;5036582;28;20291;-61
2022/03/18 07:32:32;;;;;;;;;;;;;;;;;;5036508;28;19909;-60
2022/03/18 07:34:58;;;;;;;;;;;;;;;;;;5036608;28;19913;-60
2022/03/18 07:37:26;;;;;;;;;;;;;;;;;;5036492;28;20379;-61
2022/03/18 07:39:52;;;;;;;;;;;;;;;;;;5036616;28;19920;-61
2022/03/18 07:42:18;;;;;;;;;;;;;;;;;;5036498;28;20283;-60
2022/03/18 07:44:44;;;;;;;;;;;;;;;;;;5036686;28;19992;-60
2022/03/18 07:47:10;;;;;;;;;;;;;;;;;;5036551;28;20014;-60
2022/03/18 07:49:36;;;;;;;;;;;;;;;;;;5036238;28;19912;-49
2022/03/18 07:52:02;;;;;;;;;;;;;;;;;;5036227;28;20001;-49
2022/03/18 07:54:28;;;;;;;;;;;;;;;;;;5036206;28;20287;-48
2022/03/18 07:56:54;;;;;;;;;;;;;;;;;;5036150;28;19912;-50
2022/03/18 07:59:20;;;;;;;;;;;;;;;;;;5036402;28;19921;-50
2022/03/18 08:01:45;;;;;;;;;;;;;;;;;;5036102;28;19988;-50
2022/03/18 08:04:13;;;;;;;;;;;;;;;;;;5036022;28;19984;-48
2022/03/18 08:06:38;;;;;;;;;;;;;;;;;;5036090;28;20515;-51
2022/03/18 08:09:04;;;;;;;;;;;;;;;;;;5035957;28;19905;-50
2022/03/18 08:11:30;;;;;;;;;;;;;;;;;;5035914;28;19971;-51
2022/03/18 08:13:56;;;;;;;;;;;;;;;;;;5035885;28;19905;-49
2022/03/18 08:16:22;;;;;;;;;;;;;;;;;;5035834;28;19953;-48
2022/03/18 08:18:48;;;;;;;;;;;;;;;;;;5035952;28;19920;-50
2022/03/18 08:21:14;;;;;;;;;;;;;;;;;;5035988;28;19905;-50
2022/03/18 08:23:40;;;;;;;;;;;;;;;;;;5035986;28;20260;-50
2022/03/18 08:26:06;;;;;;;;;;;;;;;;;;5035774;28;19909;-50
2022/03/18 08:28:32;;;;;;;;;;;;;;;;;;5035560;28;19912;-49
2022/03/18 08:30:57;;;;;;;;;;;;;;;;;;5035512;28;20394;-50
2022/03/18 08:33:24;;;;;;;;;;;;;;;;;;5035537;28;19905;-50
2022/03/18 08:35:50;;;;;;;;;;;;;;;;;;5035665;28;19978;-50
2022/03/18 08:38:16;;;;;;;;;;;;;;;;;;5035216;28;20439;-49
2022/03/18 08:40:42;;;;;;;;;;;;;;;;;;5034115;28;20363;-50
2022/03/18 08:43:11;;;;;;;;;;;;;;;;;;5035382;28;19912;-49
2022/03/18 08:45:37;;;;;;;;;;;;;;;;;;5035273;28;19912;-50
2022/03/18 08:48:03;;;;;;;;;;;;;;;;;;5035263;28;19913;-49
2022/03/18 08:50:28;;;;;;;;;;;;;;;;;;5035219;28;19911;-50
2022/03/18 08:52:54;;;;;;;;;;;;;;;;;;5035190;28;19905;-49
2022/03/18 08:55:20;;;;;;;;;;;;;;;;;;5035110;28;19935;-50
2022/03/18 08:57:46;;;;;;;;;;;;;;;;;;5034985;28;20423;-50
2022/03/18 09:00:14;;;;;;;;;;;;;;;;;;5035337;28;19909;-50
2022/03/18 09:02:40;;;;;;;;;;;;;;;;;;5034852;28;19917;-50
2022/03/18 09:05:06;;;;;;;;;;;;;;;;;;5034978;28;19905;-51
2022/03/18 09:07:32;;;;;;;;;;;;;;;;;;5033494;28;19912;-50
2022/03/18 09:09:57;;;;;;;;;;;;;;;;;;5034723;28;20011;-49
2022/03/18 09:12:23;;;;;;;;;;;;;;;;;;5034639;28;20455;-50
2022/03/18 09:14:49;;;;;;;;;;;;;;;;;;5034792;28;19905;-50
2022/03/18 09:17:15;;;;;;;;;;;;;;;;;;5034510;28;20051;-50
2022/03/18 09:19:41;;;;;;;;;;;;;;;;;;5034446;28;19913;-48
2022/03/18 09:22:07;;;;;;;;;;;;;;;;;;5034528;28;20011;-49
2022/03/18 09:24:33;;;;;;;;;;;;;;;;;;5034404;28;19913;-49
2022/03/18 09:26:59;;;;;;;;;;;;;;;;;;5034368;28;19917;-49
2022/03/18 09:29:25;;;;;;;;;;;;;;;;;;5034305;28;19959;-49
2022/03/18 09:31:50;;;;;;;;;;;;;;;;;;5034178;28;19940;-49
2022/03/18 09:34:16;;;;;;;;;;;;;;;;;;5034166;28;19905;-48
2022/03/18 09:36:42;;;;;;;;;;;;;;;;;;5034130;28;19916;-49
2022/03/18 09:39:08;;;;;;;;;;;;;;;;;;5034164;28;19960;-50
2022/03/18 09:41:34;;;;;;;;;;;;;;;;;;5034148;28;19940;-49
2022/03/18 09:44:00;;;;;;;;;;;;;;;;;;5034106;28;19913;-49
2022/03/18 09:46:26;;;;;;;;;;;;;;;;;;5034027;28;19971;-49
2022/03/18 09:48:52;;;;;;;;;;;;;;;;;;5033988;28;19905;-49
2022/03/18 09:51:18;;;;;;;;;;;;;;;;;;5033396;28;19994;-50
2022/03/18 09:53:44;;;;;;;;;;;;;;;;;;5033827;28;19956;-49
2022/03/18 09:56:11;;;;;;;;;;;;;;;;;;5033863;28;19905;-50
2022/03/18 09:58:37;;;;;;;;;;;;;;;;;;5034155;28;19939;-49
2022/03/18 10:01:03;;;;;;;;;;;;;;;;;;5032542;28;19913;-49
2022/03/18 10:03:29;;;;;;;;;;;;;;;;;;5033572;28;19923;-48
2022/03/18 10:05:57;;;;;;;;;;;;;;;;;;5033768;28;19905;-49
2022/03/18 10:08:23;;;;;;;;;;;;;;;;;;5033724;28;19905;-49
2022/03/18 10:10:49;;;;;;;;;;;;;;;;;;5033700;28;19912;-48
2022/03/18 10:13:16;;;;;;;;;;;;;;;;;;5033525;28;19959;-49
2022/03/18 10:15:42;;;;;;;;;;;;;;;;;;5034022;28;19992;-48
2022/03/18 10:18:08;;;;;;;;;;;;;;;;;;5033545;28;20000;-50
2022/03/18 10:20:33;;;;;;;;;;;;;;;;;;5033215;28;19909;-49
2022/03/18 10:22:59;;;;;;;;;;;;;;;;;;5033112;28;19905;-50
2022/03/18 10:25:25;;;;;;;;;;;;;;;;;;5033174;28;19905;-49
2022/03/18 10:27:51;;;;;;;;;;;;;;;;;;5033241;28;20046;-49
2022/03/18 10:30:17;;;;;;;;;;;;;;;;;;5033251;28;19905;-48
2022/03/18 10:32:43;;;;;;;;;;;;;;;;;;5033283;28;19913;-50
2022/03/18 10:37:53;;;;;;;;;;;;;;;;;;5033256;28;19911;-50
2022/03/18 10:40:19;;;;;;;;;;;;;;;;;;5033391;28;19905;-50
2022/03/18 10:42:45;;;;;;;;;;;;;;;;;;5033017;28;19928;-49
2022/03/18 10:45:11;;;;;;;;;;;;;;;;;;5032989;28;19905;-49
2022/03/18 10:47:37;;;;;;;;;;;;;;;;;;5033032;28;19999;-49
2022/03/18 10:50:03;;;;;;;;;;;;;;;;;;5033011;28;20433;-48
2022/03/18 10:52:29;;;;;;;;;;;;;;;;;;5033025;28;19909;-49
2022/03/18 10:54:56;;;;;;;;;;;;;;;;;;5032936;28;19993;-48
2022/03/18 10:57:22;;;;;;;;;;;;;;;;;;5032971;28;19905;-49
2022/03/18 10:59:48;;;;;;;;;;;;;;;;;;5033155;28;19913;-49
2022/03/18 11:02:14;;;;;;;;;;;;;;;;;;5032515;28;20276;-49
2022/03/18 11:04:41;;;;;;;;;;;;;;;;;;5032825;28;19909;-48
2022/03/18 11:12:37;;;;;;;;;;;;;;;;;;5032890;28;19912;-50
2022/03/18 11:15:04;;;;;;;;;;;;;;;;;;5031404;28;19909;-49
2022/03/18 11:17:29;;;;;;;;;;;;;;;;;;5032638;28;19912;-50
2022/03/18 11:19:59;;;;;;;;;;;;;;;;;;5032414;28;20271;-49
2022/03/18 11:22:25;;;;;;;;;;;;;;;;;;5032463;28;19905;-50
2022/03/18 11:24:50;;;;;;;;;;;;;;;;;;5032452;28;20067;-49
2022/03/18 11:27:17;;;;;;;;;;;;;;;;;;5032329;28;19924;-49
2022/03/18 11:29:43;;;;;;;;;;;;;;;;;;5032487;28;19912;-49
2022/03/18 11:32:09;;;;;;;;;;;;;;;;;;5032267;28;19979;-49
2022/03/18 11:34:35;;;;;;;;;;;;;;;;;;5032291;28;19912;-49
2022/03/18 11:37:01;;;;;;;;;;;;;;;;;;5032217;28;20387;-49
2022/03/18 11:39:28;;;;;;;;;;;;;;;;;;5032161;28;19946;-49
2022/03/18 11:41:53;;;;;;;;;;;;;;;;;;5032488;28;20301;-49
2022/03/18 11:44:19;;;;;;;;;;;;;;;;;;5032195;28;20004;-50
2022/03/18 11:46:47;;;;;;;;;;;;;;;;;;5032485;28;20371;-51
2022/03/18 11:49:13;;;;;;;;;;;;;;;;;;5032649;28;19905;-51
2022/03/18 11:51:40;;;;;;;;;;;;;;;;;;5032213;28;20338;-51
2022/03/18 11:54:07;;;;;;;;;;;;;;;;;;5032346;28;19905;-51
2022/03/18 11:56:33;;;;;;;;;;;;;;;;;;5032186;28;19905;-51
2022/03/18 11:58:59;;;;;;;;;;;;;;;;;;5032306;28;19913;-50
2022/03/18 12:01:25;;;;;;;;;;;;;;;;;;5032157;28;20386;-51
2022/03/18 12:03:51;;;;;;;;;;;;;;;;;;5031970;28;19959;-51
2022/03/18 12:06:16;;;;;;;;;;;;;;;;;;5032296;28;19913;-51
2022/03/18 12:08:42;;;;;;;;;;;;;;;;;;5032211;28;20447;-51
2022/03/18 12:11:08;;;;;;;;;;;;;;;;;;5032235;28;19905;-51
2022/03/18 12:13:34;;;;;;;;;;;;;;;;;;5033665;28;19963;-51
2022/03/18 12:16:00;;;;;;;;;;;;;;;;;;5036147;28;19905;-51
2022/03/18 12:18:26;;;;;;;;;;;;;;;;;;5035756;28;19913;-50
2022/03/18 12:20:52;;;;;;;;;;;;;;;;;;5036000;28;20000;-52
2022/03/18 12:23:17;;;;;;;;;;;;;;;;;;5035753;28;20355;-52
2022/03/18 12:25:44;;;;;;;;;;;;;;;;;;5035759;28;19937;-51
2022/03/18 12:28:10;;;;;;;;;;;;;;;;;;5035656;28;19909;-52
2022/03/18 12:30:37;;;;;;;;;;;;;;;;;;5035811;28;19912;-50
2022/03/18 12:33:03;;;;;;;;;;;;;;;;;;5035600;28;19909;-50
2022/03/18 12:35:29;;;;;;;;;;;;;;;;;;5035506;28;20359;-50
2022/03/18 12:37:55;;;;;;;;;;;;;;;;;;5035179;28;20023;-49
2022/03/18 12:40:20;;;;;;;;;;;;;;;;;;5035377;28;19905;-50
2022/03/18 12:42:46;;;;;;;;;;;;;;;;;;5035334;28;20071;-51
2022/03/18 12:45:12;;;;;;;;;;;;;;;;;;5033650;28;19909;-59
2022/03/18 12:47:38;;;;;;;;;;;;;;;;;;5033140;28;19905;-60
2022/03/18 12:50:04;;;;;;;;;;;;;;;;;;5034797;28;19912;-60
2022/03/18 12:52:30;;;;;;;;;;;;;;;;;;5035067;28;19992;-60
2022/03/18 12:54:56;;;;;;;;;;;;;;;;;;5035219;28;20367;-59
2022/03/18 12:57:21;;;;;;;;;;;;;;;;;;5035063;28;20378;-60
2022/03/18 12:59:47;;;;;;;;;;;;;;;;;;5034985;28;19913;-59
2022/03/18 13:02:13;;;;;;;;;;;;;;;;;;5034743;28;20000;-60
2022/03/18 13:04:39;;;;;;;;;;;;;;;;;;5035020;28;19920;-59
2022/03/18 13:07:06;;;;;;;;;;;;;;;;;;5034886;28;19944;-59
2022/03/18 13:09:32;;;;;;;;;;;;;;;;;;5034938;28;19991;-60
2022/03/18 13:12:01;;;;;;;;;;;;;;;;;;5035056;28;19944;-60
2022/03/18 13:14:27;;;;;;;;;;;;;;;;;;5035047;28;19940;-60
2022/03/18 13:16:53;;;;;;;;;;;;;;;;;;5034726;28;19963;-59
2022/03/18 13:19:20;;;;;;;;;;;;;;;;;;5034601;28;19913;-59
2022/03/18 13:21:47;;;;;;;;;;;;;;;;;;5034683;28;20368;-60
2022/03/18 13:24:13;;;;;;;;;;;;;;;;;;5033994;28;19909;-60
2022/03/18 13:26:39;;;;;;;;;;;;;;;;;;5034048;28;19912;-60
2022/03/18 13:29:05;;;;;;;;;;;;;;;;;;5034529;28;19952;-59
2022/03/18 13:34:15;;;;;;;;;;;;;;;;;;5034421;28;20008;-59
2022/03/18 13:36:41;;;;;;;;;;;;;;;;;;5034388;28;19952;-59
2022/03/18 13:39:07;;;;;;;;;;;;;;;;;;5034250;28;19920;-59
2022/03/18 13:41:33;;;;;;;;;;;;;;;;;;5034242;28;20275;-59
2022/03/18 13:43:59;;;;;;;;;;;;;;;;;;5034222;28;20276;-59
2022/03/18 13:46:27;;;;;;;;;;;;;;;;;;5032887;28;20003;-59
2022/03/18 13:48:57;;;;;;;;;;;;;;;;;;5034429;28;19963;-58
2022/03/18 13:51:23;;;;;;;;;;;;;;;;;;5034052;28;20351;-59
2022/03/18 13:53:49;;;;;;;;;;;;;;;;;;5034041;28;19912;-60
2022/03/18 13:56:15;;;;;;;;;;;;;;;;;;5034142;28;19905;-59
2022/03/18 13:58:41;;;;;;;;;;;;;;;;;;5034225;28;19913;-60
2022/03/18 14:01:08;;;;;;;;;;;;;;;;;;5033786;28;20441;-59
2022/03/18 14:03:34;;;;;;;;;;;;;;;;;;5033656;28;19924;-59
2022/03/18 14:06:00;;;;;;;;;;;;;;;;;;5034077;28;20283;-59
2022/03/18 14:08:26;;;;;;;;;;;;;;;;;;5033950;28;19905;-59
2022/03/18 14:10:51;;;;;;;;;;;;;;;;;;5034002;28;19905;-59
2022/03/18 14:13:17;;;;;;;;;;;;;;;;;;5033543;28;19905;-59
2022/03/18 14:15:49;;;;;;;;;;;;;;;;;;5033930;28;19912;-59
2022/03/18 14:18:16;;;;;;;;;;;;;;;;;;5033755;28;19913;-59
2022/03/18 14:20:42;;;;;;;;;;;;;;;;;;5033799;28;20014;-59
2022/03/18 14:23:08;;;;;;;;;;;;;;;;;;5033328;28;20363;-60
2022/03/18 14:25:34;;;;;;;;;;;;;;;;;;5033413;28;19909;-58
2022/03/18 14:28:00;;;;;;;;;;;;;;;;;;5033404;28;19905;-59
2022/03/18 14:30:26;;;;;;;;;;;;;;;;;;5033270;28;20000;-59
2022/03/18 14:32:52;;;;;;;;;;;;;;;;;;5033206;28;19908;-59
2022/03/18 14:35:18;;;;;;;;;;;;;;;;;;5033306;28;19905;-51
2022/03/18 14:37:43;;;;;;;;;;;;;;;;;;5032952;28;19912;-51
2022/03/18 14:40:10;;;;;;;;;;;;;;;;;;5033150;28;19909;-52
2022/03/18 14:42:37;;;;;;;;;;;;;;;;;;5033423;28;19905;-50
2022/03/18 14:45:03;;;;;;;;;;;;;;;;;;5033442;28;20264;-53
2022/03/18 14:47:29;;;;;;;;;;;;;;;;;;5033071;28;19912;-51
2022/03/18 14:49:55;;;;;;;;;;;;;;;;;;5033053;28;19905;-51
2022/03/18 14:52:21;;;;;;;;;;;;;;;;;;5032962;28;19912;-53
2022/03/18 14:57:31;;;;;;;;;;;;;;;;;;5032948;28;19976;-52
2022/03/18 14:59:57;;;;;;;;;;;;;;;;;;5032795;28;19920;-49
2022/03/18 15:02:24;;;;;;;;;;;;;;;;;;5032537;28;19917;-50
2022/03/18 15:04:50;;;;;;;;;;;;;;;;;;5032724;28;19912;-52
2022/03/18 15:07:16;;;;;;;;;;;;;;;;;;5032792;28;19909;-50
2022/03/18 15:09:42;;;;;;;;;;;;;;;;;;5032842;28;20375;-52
2022/03/18 15:12:08;;;;;;;;;;;;;;;;;;5032840;28;19909;-50
2022/03/18 15:14:34;;;;;;;;;;;;;;;;;;5032710;28;19967;-53
2022/03/18 15:17:00;;;;;;;;;;;;;;;;;;5032965;28;19975;-55
2022/03/18 15:19:26;;;;;;;;;;;;;;;;;;5032922;28;19920;-54
2022/03/18 15:21:52;;;;;;;;;;;;;;;;;;5032668;28;20427;-54
2022/03/18 15:24:20;;;;;;;;;;;;;;;;;;5032635;28;19905;-55
2022/03/18 15:26:46;;;;;;;;;;;;;;;;;;5032654;28;20422;-53
2022/03/18 15:29:12;;;;;;;;;;;;;;;;;;5032725;28;19956;-54
2022/03/18 15:31:38;;;;;;;;;;;;;;;;;;5032538;28;19913;-50
2022/03/18 15:34:04;;;;;;;;;;;;;;;;;;5032524;28;20000;-53
2022/03/18 15:36:30;;;;;;;;;;;;;;;;;;5032580;28;19912;-49
2022/03/18 15:38:56;;;;;;;;;;;;;;;;;;5032420;28;19913;-53
2022/03/18 15:41:22;;;;;;;;;;;;;;;;;;5032495;28;19963;-54
2022/03/18 15:43:48;;;;;;;;;;;;;;;;;;5032442;28;19905;-57
2022/03/18 15:46:14;;;;;;;;;;;;;;;;;;5032456;28;19905;-56
2022/03/18 15:48:40;;;;;;;;;;;;;;;;;;5034197;28;20295;-57
2022/03/18 15:51:06;;;;;;;;;;;;;;;;;;5036382;28;19955;-56
2022/03/18 15:53:32;;;;;;;;;;;;;;;;;;5036400;28;19909;-58
2022/03/18 15:55:58;;;;;;;;;;;;;;;;;;5036494;28;20095;-57
2022/03/18 15:58:25;;;;;;;;;;;;;;;;;;5036199;28;19913;-56
2022/03/18 16:00:51;;;;;;;;;;;;;;;;;;5036418;28;19975;-55
2022/03/18 16:03:17;;;;;;;;;;;;;;;;;;5035945;28;19917;-54
2022/03/18 16:05:44;;;;;;;;;;;;;;;;;;5036203;28;20008;-55
2022/03/18 16:08:10;;;;;;;;;;;;;;;;;;5036096;28;19905;-57
2022/03/18 16:10:37;;;;;;;;;;;;;;;;;;5036221;28;19905;-56
2022/03/18 16:13:03;;;;;;;;;;;;;;;;;;5036027;28;19974;-56
2022/03/18 16:15:29;;;;;;;;;;;;;;;;;;5035932;28;19905;-56
2022/03/18 16:17:56;;;;;;;;;;;;;;;;;;5035808;28;19927;-56
2022/03/18 16:20:21;;;;;;;;;;;;;;;;;;5036409;28;20275;-56
2022/03/18 16:22:47;;;;;;;;;;;;;;;;;;5035793;28;19912;-55
2022/03/18 16:25:13;;;;;;;;;;;;;;;;;;5035841;28;20049;-56
2022/03/18 16:27:39;;;;;;;;;;;;;;;;;;5035915;28;19911;-54
2022/03/18 16:30:05;;;;;;;;;;;;;;;;;;5035583;28;19928;-56
2022/03/18 16:32:33;;;;;;;;;;;;;;;;;;5035568;28;20368;-55
2022/03/18 16:34:59;;;;;;;;;;;;;;;;;;5035586;28;19905;-58
2022/03/18 16:37:25;;;;;;;;;;;;;;;;;;5035549;28;19905;-56
2022/03/18 16:39:51;;;;;;;;;;;;;;;;;;5035423;28;19939;-56
2022/03/18 16:42:17;;;;;;;;;;;;;;;;;;5035436;28;19948;-56
2022/03/18 16:44:43;;;;;;;;;;;;;;;;;;5035353;28;19916;-55
2022/03/18 16:49:53;;;;;;;;;;;;;;;;;;5035369;28;19968;-56
2022/03/18 16:52:20;;;;;;;;;;;;;;;;;;5035207;28;19909;-56
2022/03/18 16:54:46;;;;;;;;;;;;;;;;;;5035412;28;20355;-56
2022/03/18 16:57:15;;;;;;;;;;;;;;;;;;5035320;28;19967;-56
2022/03/18 16:59:41;;;;;;;;;;;;;;;;;;5034914;28;19913;-55
2022/03/18 17:02:07;;;;;;;;;;;;;;;;;;5034875;28;20356;-56